Time;durP1;ratioP1;P1;durP2;ratioP2;P2;SDS_P1;SDS_P2;PMS_P1;PMS_P2;Temp;Humidity;BMP_temperature;BMP_pressure;BME280_temperature;BME280_humidity;BME280_pressure;Samples;Min_cycle;Max_cycle;Signal;HPM_P1;HPM_P2
2022/01/11 00:02:04;;;;;;;0.20;0.20;;;;;;;1.00;100.00;102503.28;5030911;28;20042;-83
2022/01/11 00:04:37;;;;;;;0.20;0.20;;;;;;;1.03;100.00;102510.97;5025514;28;20049;-82
2022/01/11 00:07:11;;;;;;;0.20;0.20;;;;;;;0.79;100.00;102482.38;5029654;28;20549;-82
2022/01/11 00:09:43;;;;;;;0.15;0.15;;;;;;;0.98;100.00;102514.19;5027022;28;20041;-82
2022/01/11 00:12:16;;;;;;;0.20;0.20;;;;;;;1.02;100.00;102511.97;5029151;28;20513;-82
2022/01/11 00:14:44;;;;;;;0.20;0.20;;;;;;;0.99;100.00;102513.16;5030399;28;20046;-83
2022/01/11 00:17:12;;;;;;;0.20;0.20;;;;;;;1.00;100.00;102520.19;5029598;28;20506;-83
2022/01/11 00:19:41;;;;;;;0.20;0.20;;;;;;;0.90;100.00;102503.47;5023417;28;20075;-83
2022/01/11 00:22:17;;;;;;;0.10;0.10;;;;;;;0.96;100.00;102516.19;5025649;28;20049;-82
2022/01/11 00:24:44;;;;;;;0.20;0.20;;;;;;;0.97;100.00;102517.84;5024278;28;20049;-83
2022/01/11 00:27:13;;;;;;;0.20;0.20;;;;;;;1.00;100.00;102514.00;5028465;28;20409;-84
2022/01/11 00:29:44;;;;;;;0.20;0.20;;;;;;;0.98;100.00;102526.72;5027618;28;20044;-84
2022/01/11 00:32:32;;;;;;;0.20;0.20;;;;;;;0.97;100.00;102523.22;5026458;28;20497;-84
2022/01/11 00:35:03;;;;;;;0.20;0.20;;;;;;;0.97;100.00;102519.72;5020649;28;20722;-84
2022/01/11 00:37:33;;;;;;;0.20;0.20;;;;;;;1.02;100.00;102525.38;5025086;28;20056;-84
2022/01/11 00:40:04;;;;;;;0.10;0.10;;;;;;;1.01;100.00;102531.78;5024076;28;20486;-84
2022/01/11 00:42:33;;;;;;;0.20;0.20;;;;;;;1.01;100.00;102529.91;5026960;28;21531;-84
2022/01/11 00:45:10;;;;;;;0.20;0.20;;;;;;;1.02;100.00;102530.75;5029282;28;20042;-84
2022/01/11 00:47:43;;;;;;;0.10;0.10;;;;;;;1.00;100.00;102522.06;5025666;28;20061;-83
2022/01/11 00:50:17;;;;;;;0.20;0.20;;;;;;;0.92;100.00;102530.09;5028870;28;20044;-84
2022/01/11 00:52:47;;;;;;;0.20;0.20;;;;;;;0.99;100.00;102531.91;5031122;28;20050;-83
2022/01/11 00:55:21;;;;;;;0.20;0.20;;;;;;;0.99;100.00;102534.59;5027412;28;20057;-83
2022/01/11 00:57:49;;;;;;;0.20;0.20;;;;;;;0.94;100.00;102536.13;5025657;28;20517;-83
2022/01/11 01:00:23;;;;;;;0.20;0.20;;;;;;;0.95;100.00;102535.13;5023101;28;20241;-84
2022/01/11 01:02:57;;;;;;;0.10;0.10;;;;;;;0.99;100.00;102544.50;5032006;28;20044;-83
2022/01/11 01:05:25;;;;;;;0.20;0.20;;;;;;;0.95;100.00;102537.81;5021732;28;20054;-83
2022/01/11 01:08:01;;;;;;;0.17;0.17;;;;;;;0.96;100.00;102542.16;5030316;28;20542;-84
2022/01/11 01:10:37;;;;;;;0.20;0.20;;;;;;;0.91;100.00;102540.00;5028684;28;20103;-84
2022/01/11 01:13:10;;;;;;;0.20;0.20;;;;;;;0.97;100.00;102544.66;5035135;28;20486;-84
2022/01/11 01:15:40;;;;;;;0.20;0.20;;;;;;;0.90;100.00;102540.16;5038666;28;20062;-84
2022/01/11 01:18:23;;;;;;;0.20;0.20;;;;;;;0.93;100.00;102547.88;5028191;28;20046;-84
2022/01/11 01:20:57;;;;;;;0.10;0.10;;;;;;;0.94;100.00;102549.53;5017082;28;20050;-83
2022/01/11 01:23:31;;;;;;;0.20;0.20;;;;;;;0.94;100.00;102554.88;5032813;28;20056;-84
2022/01/11 01:26:01;;;;;;;0.20;0.20;;;;;;;0.95;100.00;102544.00;5038388;28;20072;-84
2022/01/11 01:28:34;;;;;;;0.20;0.20;;;;;;;0.99;100.00;102547.19;5019440;28;20045;-84
2022/01/11 01:31:07;;;;;;;0.20;0.20;;;;;;;0.95;100.00;102554.75;5024951;28;20052;-84
2022/01/11 01:33:41;;;;;;;0.20;0.20;;;;;;;0.82;100.00;102519.56;5026451;28;20060;-84
2022/01/11 01:36:14;;;;;;;0.20;0.20;;;;;;;0.91;100.00;102555.22;5023417;28;20053;-84
2022/01/11 01:38:49;;;;;;;0.10;0.10;;;;;;;0.89;100.00;102559.94;5026875;28;20049;-84
2022/01/11 01:41:23;;;;;;;0.20;0.20;;;;;;;0.87;100.00;102562.78;5040902;28;20049;-84
2022/01/11 01:44:00;;;;;;;0.17;0.17;;;;;;;0.88;100.00;102560.94;5023759;28;20037;-84
2022/01/11 01:46:33;;;;;;;0.20;0.20;;;;;;;0.75;100.00;102537.34;5034257;28;20057;-84
2022/01/11 01:49:08;;;;;;;0.10;0.10;;;;;;;0.93;100.00;102563.97;5022280;28;20049;-84
2022/01/11 01:51:41;;;;;;;0.20;0.20;;;;;;;0.90;100.00;102569.63;5030705;28;20046;-84
2022/01/11 01:54:12;;;;;;;0.20;0.20;;;;;;;0.94;100.00;102571.81;5025879;28;20057;-83
2022/01/11 01:56:45;;;;;;;0.10;0.10;;;;;;;0.91;100.00;102576.69;5035648;28;20046;-84
2022/01/11 01:59:14;;;;;;;0.20;0.20;;;;;;;0.84;100.00;102558.59;5029152;28;20058;-84
2022/01/11 02:01:48;;;;;;;0.20;0.20;;;;;;;0.90;100.00;102567.81;5041550;28;20053;-84
2022/01/11 02:04:18;;;;;;;0.20;0.20;;;;;;;0.94;100.00;102568.28;5031580;28;20041;-83
2022/01/11 02:06:52;;;;;;;0.20;0.20;;;;;;;0.94;100.00;102574.50;5029912;28;20423;-83
2022/01/11 02:09:26;;;;;;;0.20;0.20;;;;;;;0.92;100.00;102583.72;5027909;28;20049;-84
2022/01/11 02:12:00;;;;;;;0.20;0.20;;;;;;;0.93;100.00;102586.22;5027484;28;20397;-83
2022/01/11 02:14:29;;;;;;;0.20;0.20;;;;;;;0.93;100.00;102585.41;5035170;28;20053;-83
2022/01/11 02:17:05;;;;;;;0.20;0.20;;;;;;;0.91;100.00;102590.06;5032864;28;20052;-83
2022/01/11 02:19:39;;;;;;;0.20;0.20;;;;;;;0.97;100.00;102589.41;5019020;28;20052;-83
2022/01/11 02:22:09;;;;;;;0.20;0.20;;;;;;;0.93;100.00;102586.22;5017200;28;20054;-83
2022/01/11 02:24:42;;;;;;;0.20;0.20;;;;;;;0.90;100.00;102585.72;5023107;28;20045;-84
2022/01/11 02:27:16;;;;;;;0.20;0.20;;;;;;;0.75;100.00;102561.44;5046905;28;20046;-84
2022/01/11 02:29:49;;;;;;;0.20;0.20;;;;;;;0.84;100.00;102581.88;5028498;28;20049;-84
2022/01/11 02:32:18;;;;;;;0.20;0.20;;;;;;;0.93;100.00;102583.53;5052784;28;20056;-83
2022/01/11 02:34:52;;;;;;;0.20;0.20;;;;;;;0.83;100.00;102586.41;5019698;28;20061;-83
2022/01/11 02:37:29;;;;;;;0.20;0.20;;;;;;;0.92;100.00;102581.03;5023757;28;20525;-83
2022/01/11 02:40:10;;;;;;;0.20;0.20;;;;;;;0.85;100.00;102580.88;5024753;28;20060;-83
2022/01/11 02:42:44;;;;;;;0.10;0.10;;;;;;;0.84;100.00;102582.72;5032497;28;20033;-83
2022/01/11 02:45:14;;;;;;;0.10;0.10;;;;;;;0.77;100.00;102583.56;5031771;28;20046;-83
2022/01/11 02:47:45;;;;;;;0.20;0.20;;;;;;;0.80;100.00;102592.09;5028661;28;20502;-83
2022/01/11 02:50:15;;;;;;;0.10;0.10;;;;;;;0.68;100.00;102583.53;5030508;28;20045;-83
2022/01/11 02:52:48;;;;;;;0.17;0.17;;;;;;;0.76;100.00;102580.03;5030130;28;20033;-83
2022/01/11 02:55:21;;;;;;;0.20;0.20;;;;;;;0.69;100.00;102573.66;5029526;28;20414;-83
2022/01/11 02:57:56;;;;;;;0.20;0.20;;;;;;;0.74;100.00;102586.56;5027838;28;20673;-83
2022/01/11 03:00:30;;;;;;;0.10;0.10;;;;;;;0.75;100.00;102585.56;5034966;28;20076;-83
2022/01/11 03:03:17;;;;;;;0.10;0.10;;;;;;;0.74;100.00;102586.56;5037845;28;20061;-84
2022/01/11 03:05:47;;;;;;;0.20;0.20;;;;;;;0.57;100.00;102581.19;5031693;28;20041;-83
2022/01/11 03:08:20;;;;;;;0.20;0.20;;;;;;;0.69;100.00;102595.09;5029866;28;20045;-83
2022/01/11 03:10:49;;;;;;;0.20;0.20;;;;;;;0.73;100.00;102612.50;5029263;28;20056;-83
2022/01/11 03:13:24;;;;;;;0.20;0.20;;;;;;;0.75;100.00;102607.00;5027704;28;20053;-83
2022/01/11 03:15:53;;;;;;;0.20;0.20;;;;;;;0.75;100.00;102604.34;5032809;28;20045;-83
2022/01/11 03:18:27;;;;;;;0.20;0.20;;;;;;;0.81;100.00;102617.06;5023802;28;20628;-83
2022/01/11 03:21:00;;;;;;;0.10;0.10;;;;;;;0.79;100.00;102619.91;5020498;28;20501;-84
2022/01/11 03:23:35;;;;;;;0.20;0.20;;;;;;;0.78;100.00;102620.91;5028437;28;20052;-83
2022/01/11 03:26:05;;;;;;;0.15;0.15;;;;;;;0.81;100.00;102623.25;5030194;28;20045;-83
2022/01/11 03:28:35;;;;;;;0.20;0.20;;;;;;;0.79;100.00;102617.22;5037070;28;20053;-83
2022/01/11 03:31:04;;;;;;;0.20;0.20;;;;;;;0.88;100.00;102623.41;5029618;28;20406;-84
2022/01/11 03:33:48;;;;;;;0.20;0.20;;;;;;;0.85;100.00;102637.16;5022635;28;20050;-83
2022/01/11 03:36:23;;;;;;;0.20;0.20;;;;;;;0.91;100.00;102639.19;5038405;28;20056;-83
2022/01/11 03:38:57;;;;;;;0.20;0.20;;;;;;;0.92;100.00;102640.84;5025279;28;20050;-83
2022/01/11 03:41:27;;;;;;;0.20;0.20;;;;;;;0.95;100.00;102643.22;5026848;28;20049;-83
2022/01/11 03:43:55;;;;;;;0.20;0.20;;;;;;;0.93;100.00;102645.22;5024333;28;20053;-83
2022/01/11 03:46:28;;;;;;;0.20;0.20;;;;;;;0.98;100.00;102645.56;5039148;28;20183;-84
2022/01/11 03:49:02;;;;;;;0.20;0.20;;;;;;;0.92;100.00;102632.78;5027696;28;20042;-83
2022/01/11 03:51:35;;;;;;;0.10;0.10;;;;;;;1.04;100.00;102633.31;5022234;28;20050;-84
2022/01/11 03:54:13;;;;;;;0.20;0.20;;;;;;;0.99;100.00;102623.06;5011804;28;20364;-83
2022/01/11 03:57:01;;;;;;;0.20;0.20;;;;;;;0.92;100.00;102629.28;5026628;28;20053;-83
2022/01/11 03:59:33;;;;;;;0.13;0.13;;;;;;;0.89;100.00;102625.09;5019238;28;20060;-83
2022/01/11 04:02:07;;;;;;;0.15;0.15;;;;;;;0.94;100.00;102632.63;5038175;28;20537;-83
2022/01/11 04:04:41;;;;;;;0.20;0.20;;;;;;;1.01;100.00;102631.81;5028970;28;20045;-83
2022/01/11 04:07:14;;;;;;;0.10;0.10;;;;;;;0.94;100.00;102628.13;5026839;28;20048;-84
2022/01/11 04:09:44;;;;;;;0.20;0.20;;;;;;;1.01;100.00;102630.97;5025667;28;20049;-83
2022/01/11 04:12:18;;;;;;;0.15;0.15;;;;;;;1.00;100.00;102634.66;5030149;28;20054;-84
2022/01/11 04:14:52;;;;;;;0.20;0.20;;;;;;;1.01;100.00;102636.34;5026802;28;20513;-83
2022/01/11 04:17:26;;;;;;;0.20;0.20;;;;;;;0.89;100.00;102630.47;5028903;28;20049;-83
2022/01/11 04:19:54;;;;;;;0.20;0.20;;;;;;;1.01;100.00;102639.03;5029291;28;20045;-83
2022/01/11 04:22:22;;;;;;;0.20;0.20;;;;;;;0.95;100.00;102642.34;5028906;28;20041;-84
2022/01/11 04:24:57;;;;;;;0.10;0.10;;;;;;;0.98;100.00;102642.88;5029966;28;20060;-84
2022/01/11 04:27:26;;;;;;;0.13;0.13;;;;;;;0.95;100.00;102626.28;5025178;28;20054;-84
2022/01/11 04:29:55;;;;;;;0.20;0.20;;;;;;;0.98;100.00;102639.34;5028647;28;20048;-84
2022/01/11 04:32:30;;;;;;;0.20;0.20;;;;;;;0.95;100.00;102642.34;5021396;28;20053;-84
2022/01/11 04:35:04;;;;;;;0.17;0.17;;;;;;;0.96;100.00;102620.72;5022727;28;20041;-84
2022/01/11 04:37:38;;;;;;;0.20;0.20;;;;;;;0.96;100.00;102625.28;5026143;28;20037;-84
2022/01/11 04:40:08;;;;;;;0.20;0.20;;;;;;;0.76;100.00;102596.13;5025399;28;20046;-84
2022/01/11 04:42:43;;;;;;;0.22;0.22;;;;;;;0.90;100.00;102631.28;5026054;28;20046;-83
2022/01/11 04:45:16;;;;;;;0.20;0.20;;;;;;;0.89;100.00;102629.63;5019383;28;20057;-84
2022/01/11 04:47:56;;;;;;;0.20;0.20;;;;;;;0.59;100.00;102599.78;5029617;28;20049;-84
2022/01/11 04:50:26;;;;;;;0.20;0.20;;;;;;;0.88;100.00;102642.19;5022162;28;20042;-84
2022/01/11 04:53:00;;;;;;;0.20;0.20;;;;;;;0.87;100.00;102645.03;5029762;28;20053;-84
2022/01/11 04:55:35;;;;;;;0.20;0.20;;;;;;;0.78;100.00;102618.22;5026741;28;20406;-84
2022/01/11 04:58:04;;;;;;;0.20;0.20;;;;;;;0.83;100.00;102625.78;5037196;28;20046;-84
2022/01/11 05:00:38;;;;;;;0.10;0.10;;;;;;;0.80;100.00;102637.66;5020798;28;20049;-84
2022/01/11 05:03:07;;;;;;;0.20;0.20;;;;;;;0.78;100.00;102636.16;5030294;28;20057;-84
2022/01/11 05:05:35;;;;;;;0.20;0.20;;;;;;;0.85;100.00;102648.72;5026452;28;20046;-84
2022/01/11 05:08:05;;;;;;;0.10;0.10;;;;;;;0.85;100.00;102635.31;5021636;28;20394;-84
2022/01/11 05:10:35;;;;;;;0.10;0.10;;;;;;;0.91;100.00;102646.38;5026270;28;20063;-84
2022/01/11 05:13:08;;;;;;;0.20;0.20;;;;;;;0.81;100.00;102642.00;5031750;28;20425;-83
2022/01/11 05:15:36;;;;;;;0.10;0.10;;;;;;;0.87;100.00;102639.66;5043576;28;20056;-84
2022/01/11 05:18:11;;;;;;;0.20;0.20;;;;;;;0.77;100.00;102654.06;5031186;28;20045;-83
2022/01/11 05:20:46;;;;;;;0.20;0.20;;;;;;;0.74;100.00;102651.72;5022781;28;20415;-83
2022/01/11 05:23:19;;;;;;;0.15;0.15;;;;;;;0.77;100.00;102648.69;5028216;28;20410;-83
2022/01/11 05:25:49;;;;;;;0.20;0.20;;;;;;;0.81;100.00;102649.22;5034373;28;20052;-83
2022/01/11 05:28:23;;;;;;;0.20;0.20;;;;;;;0.82;100.00;102645.53;5030364;28;20503;-84
2022/01/11 05:30:52;;;;;;;0.20;0.20;;;;;;;0.75;100.00;102653.41;5038082;28;20057;-84
2022/01/11 05:33:25;;;;;;;0.10;0.10;;;;;;;0.77;100.00;102651.38;5031042;28;20053;-83
2022/01/11 05:35:58;;;;;;;0.25;0.25;;;;;;;0.74;100.00;102642.84;5031653;28;20060;-82
2022/01/11 05:38:33;;;;;;;0.20;0.20;;;;;;;0.72;100.00;102653.75;5037198;28;20045;-83
2022/01/11 05:41:08;;;;;;;0.20;0.20;;;;;;;0.66;100.00;102646.34;5039375;28;20071;-82
2022/01/11 05:43:42;;;;;;;0.10;0.10;;;;;;;0.78;100.00;102657.59;5023739;28;20042;-82
2022/01/11 05:46:12;;;;;;;0.20;0.20;;;;;;;0.72;100.00;102656.41;5027028;28;20490;-83
2022/01/11 05:48:45;;;;;;;0.20;0.20;;;;;;;0.74;100.00;102661.59;5040504;28;20053;-82
2022/01/11 05:51:15;;;;;;;0.20;0.20;;;;;;;0.72;100.00;102659.09;5034320;28;20049;-82
2022/01/11 05:53:49;;;;;;;0.20;0.20;;;;;;;0.68;100.00;102658.56;5029843;28;20049;-81
2022/01/11 05:56:25;;;;;;;0.20;0.20;;;;;;;0.74;100.00;102657.06;5028103;28;20061;-82
2022/01/11 05:58:53;;;;;;;0.20;0.20;;;;;;;0.76;100.00;102659.59;5038336;28;20049;-82
2022/01/11 06:01:27;;;;;;;0.20;0.20;;;;;;;0.71;100.00;102662.78;5034464;28;20501;-82
2022/01/11 06:04:00;;;;;;;0.20;0.20;;;;;;;0.72;100.00;102672.50;5030607;28;20049;-82
2022/01/11 06:06:33;;;;;;;0.22;0.22;;;;;;;0.73;100.00;102668.78;5041486;28;20053;-82
2022/01/11 06:09:03;;;;;;;0.10;0.10;;;;;;;0.74;100.00;102675.84;5025498;28;20056;-81
2022/01/11 06:11:37;;;;;;;0.20;0.20;;;;;;;0.73;100.00;102681.38;5050961;28;20528;-82
2022/01/11 06:14:10;;;;;;;0.20;0.20;;;;;;;0.80;100.00;102671.66;5028229;28;20112;-82
2022/01/11 06:16:44;;;;;;;0.20;0.20;;;;;;;0.80;100.00;102682.38;5033618;28;20057;-82
2022/01/11 06:19:18;;;;;;;0.20;0.20;;;;;;;0.82;100.00;102683.06;5026390;28;20057;-82
2022/01/11 06:22:00;;;;;;;0.20;0.20;;;;;;;0.82;100.00;102691.94;5030710;28;20053;-82
2022/01/11 06:24:30;;;;;;;0.20;0.20;;;;;;;0.84;100.00;102700.66;5029492;28;20426;-82
2022/01/11 06:27:05;;;;;;;0.10;0.10;;;;;;;0.84;100.00;102707.84;5033109;28;20045;-82
2022/01/11 06:29:38;;;;;;;0.20;0.20;;;;;;;0.80;100.00;102693.09;5027852;28;20049;-82
2022/01/11 06:32:07;;;;;;;0.20;0.20;;;;;;;0.83;100.00;102708.88;5034579;28;20045;-82
2022/01/11 06:34:35;;;;;;;0.10;0.10;;;;;;;0.82;100.00;102704.50;5021240;28;20049;-82
2022/01/11 06:37:08;;;;;;;0.20;0.20;;;;;;;0.80;100.00;102707.34;5033929;28;20053;-81
2022/01/11 06:39:41;;;;;;;0.20;0.20;;;;;;;0.82;100.00;102704.50;5030630;28;20054;-82
2022/01/11 06:42:17;;;;;;;0.20;0.20;;;;;;;0.70;100.00;102708.50;5029625;28;20045;-82
2022/01/11 06:44:51;;;;;;;0.20;0.20;;;;;;;0.68;100.00;102706.00;5045921;28;20041;-81
2022/01/11 06:47:25;;;;;;;0.20;0.20;;;;;;;0.61;100.00;102719.19;5028740;28;20053;-82
2022/01/11 06:49:53;;;;;;;0.13;0.13;;;;;;;0.63;100.00;102716.34;5030051;28;20060;-82
2022/01/11 06:52:21;;;;;;;0.20;0.20;;;;;;;0.65;100.00;102715.19;5035425;28;20057;-81
2022/01/11 06:54:55;;;;;;;0.20;0.20;;;;;;;0.63;100.00;102713.66;5034762;28;20042;-81
2022/01/11 06:57:27;;;;;;;0.25;0.25;;;;;;;0.64;100.00;102713.50;5041899;28;20073;-82
2022/01/11 07:00:00;;;;;;;0.30;0.30;;;;;;;0.75;100.00;102711.53;5027651;28;20053;-82
2022/01/11 07:02:31;;;;;;;0.20;0.20;;;;;;;0.79;100.00;102719.06;5047281;28;20401;-82
2022/01/11 07:05:23;;;;;;;0.20;0.20;;;;;;;0.78;100.00;102717.38;5041615;28;20046;-83
2022/01/11 07:07:56;;;;;;;0.20;0.20;;;;;;;0.72;100.00;102718.06;5024048;28;20060;-82
2022/01/11 07:10:29;;;;;;;0.20;0.20;;;;;;;0.71;100.00;102727.09;5031750;28;20053;-82
2022/01/11 07:12:59;;;;;;;0.20;0.20;;;;;;;0.68;100.00;102730.09;5032611;28;20046;-82
2022/01/11 07:15:27;;;;;;;0.20;0.20;;;;;;;0.53;100.00;102700.41;5034375;28;20050;-82
2022/01/11 07:17:56;;;;;;;0.20;0.20;;;;;;;0.76;100.00;102730.13;5029176;28;20041;-82
2022/01/11 07:20:29;;;;;;;0.20;0.20;;;;;;;0.70;100.00;102720.06;5022437;28;20045;-82
2022/01/11 07:22:57;;;;;;;0.20;0.20;;;;;;;0.68;100.00;102711.34;5024446;28;20049;-82
2022/01/11 07:25:32;;;;;;;0.20;0.20;;;;;;;0.75;100.00;102715.03;5034354;28;20057;-83
2022/01/11 07:28:10;;;;;;;0.20;0.20;;;;;;;0.83;100.00;102727.63;5026791;28;20050;-82
2022/01/11 07:30:48;;;;;;;0.20;0.20;;;;;;;0.85;100.00;102733.66;5025773;28;20045;-82
2022/01/11 07:33:16;;;;;;;0.20;0.20;;;;;;;0.85;100.00;102747.88;5031436;28;20052;-83
2022/01/11 07:35:52;;;;;;;0.20;0.20;;;;;;;0.93;100.00;102751.63;5027981;28;20045;-83
2022/01/11 07:38:26;;;;;;;0.20;0.20;;;;;;;0.76;100.00;102729.28;5029572;28;20414;-83
2022/01/11 07:40:59;;;;;;;0.20;0.20;;;;;;;0.90;100.00;102744.72;5031957;28;20056;-83
2022/01/11 07:43:43;;;;;;;0.20;0.20;;;;;;;0.93;100.00;102752.44;5027815;28;20054;-83
2022/01/11 07:46:24;;;;;;;0.20;0.20;;;;;;;0.80;100.00;102736.84;5024836;28;20054;-82
2022/01/11 07:49:02;;;;;;;0.20;0.20;;;;;;;0.99;100.00;102759.00;5025338;28;20049;-82
2022/01/11 07:51:31;;;;;;;0.20;0.20;;;;;;;0.99;100.00;102754.44;5026345;28;20056;-82
2022/01/11 07:54:07;;;;;;;0.10;0.10;;;;;;;0.96;100.00;102754.78;5027327;28;20052;-82
2022/01/11 07:56:38;;;;;;;0.20;0.20;;;;;;;0.99;100.00;102761.66;5019708;28;20041;-83
2022/01/11 07:59:13;;;;;;;0.20;0.20;;;;;;;0.92;100.00;102755.28;5030453;28;20045;-82
2022/01/11 08:01:48;;;;;;;0.20;0.20;;;;;;;0.87;100.00;102741.53;5027924;28;20064;-81
2022/01/11 08:04:19;;;;;;;0.20;0.20;;;;;;;1.02;100.00;102761.34;5022284;28;20533;-82
2022/01/11 08:06:53;;;;;;;0.20;0.20;;;;;;;1.07;100.00;102767.03;5027072;28;20050;-80
2022/01/11 08:09:31;;;;;;;0.10;0.10;;;;;;;1.07;100.00;102761.69;5043187;28;20041;-84
2022/01/11 08:12:05;;;;;;;0.20;0.20;;;;;;;1.06;100.00;102760.00;5025943;28;20053;-85
2022/01/11 08:14:43;;;;;;;0.20;0.20;;;;;;;1.11;100.00;102765.72;5028217;28;20046;-84
2022/01/11 08:17:13;;;;;;;0.13;0.13;;;;;;;1.11;100.00;102759.53;5022764;28;20049;-83
2022/01/11 08:19:41;;;;;;;0.20;0.20;;;;;;;1.08;100.00;102741.06;5022646;28;20037;-83
2022/01/11 08:22:16;;;;;;;0.20;0.20;;;;;;;1.17;100.00;102764.22;5015203;28;20410;-83
2022/01/11 08:24:52;;;;;;;0.20;0.20;;;;;;;1.16;100.00;102755.34;5021631;28;20056;-83
2022/01/11 08:27:22;;;;;;;0.20;0.20;;;;;;;1.17;100.00;102756.16;5018832;28;20080;-83
2022/01/11 08:29:52;;;;;;;0.17;0.17;;;;;;;1.14;100.00;102756.50;5015517;28;20064;-83
2022/01/11 08:32:20;;;;;;;0.20;0.20;;;;;;;1.16;100.00;102760.69;5016822;28;20057;-82
2022/01/11 08:34:55;;;;;;;0.20;0.20;;;;;;;1.19;100.00;102763.03;5015742;28;20060;-82
2022/01/11 08:37:28;;;;;;;0.20;0.20;;;;;;;1.09;100.00;102740.06;5014908;28;20060;-83
2022/01/11 08:40:02;;;;;;;0.20;0.20;;;;;;;1.31;100.00;102766.25;5016350;28;20045;-81
2022/01/11 08:42:30;;;;;;;0.20;0.20;;;;;;;1.21;100.00;102737.91;5015710;28;20050;-87
2022/01/11 08:45:02;;;;;;;0.20;0.20;;;;;;;1.31;100.00;102765.41;5014270;28;20057;-85
2022/01/11 08:47:40;;;;;;;0.20;0.20;;;;;;;1.34;100.00;102757.00;5016970;28;20595;-86
2022/01/11 08:50:14;;;;;;;0.20;0.20;;;;;;;1.38;100.00;102769.09;5020918;28;20054;-85
2022/01/11 08:52:47;;;;;;;0.13;0.13;;;;;;;1.26;100.00;102757.84;5020261;28;20053;-84
2022/01/11 08:55:24;;;;;;;0.20;0.20;;;;;;;1.37;100.00;102762.06;5023450;28;20049;-85
2022/01/11 08:57:53;;;;;;;0.10;0.10;;;;;;;1.39;100.00;102770.75;5020653;28;20049;-86
2022/01/11 09:00:28;;;;;;;0.20;0.20;;;;;;;1.49;100.00;102763.41;5023800;28;20054;-85
2022/01/11 09:03:08;;;;;;;0.20;0.20;;;;;;;1.45;100.00;102755.84;5013341;28;20057;-85
2022/01/11 09:05:46;;;;;;;0.20;0.20;;;;;;;1.56;100.00;102765.41;5019956;28;21629;-84
2022/01/11 09:08:15;;;;;;;0.20;0.20;;;;;;;1.41;100.00;102747.31;5040793;28;20050;-86
2022/01/11 09:10:48;;;;;;;0.20;0.20;;;;;;;1.54;100.00;102768.25;5025933;28;20060;-84
2022/01/11 09:13:25;;;;;;;0.20;0.20;;;;;;;1.43;100.00;102764.06;5024143;28;20060;-84
2022/01/11 09:16:00;;;;;;;0.10;0.10;;;;;;;1.51;100.00;102765.91;5022471;28;20060;-84
2022/01/11 09:18:35;;;;;;;0.20;0.20;;;;;;;1.50;100.00;102769.59;5019876;28;20053;-84
2022/01/11 09:21:04;;;;;;;0.20;0.20;;;;;;;1.46;100.00;102774.47;5018416;28;20721;-85
2022/01/11 09:23:38;;;;;;;0.20;0.20;;;;;;;1.49;100.00;102775.97;5021874;28;20541;-86
2022/01/11 09:26:11;;;;;;;0.20;0.20;;;;;;;1.59;100.00;102778.47;5020676;28;20045;-83
2022/01/11 09:28:47;;;;;;;0.20;0.20;;;;;;;1.56;100.00;102781.50;5019811;28;20877;-83
2022/01/11 09:31:22;;;;;;;0.20;0.20;;;;;;;1.62;100.00;102784.38;5022789;28;20750;-85
2022/01/11 09:33:59;;;;;;;0.20;0.20;;;;;;;1.64;100.00;102773.47;5021696;28;20053;-83
2022/01/11 09:36:27;;;;;;;0.20;0.20;;;;;;;1.60;100.00;102777.47;5020515;28;20061;-85
2022/01/11 09:38:57;;;;;;;0.20;0.20;;;;;;;1.59;100.00;102783.84;5023873;28;20054;-84
2022/01/11 09:41:26;;;;;;;0.17;0.17;;;;;;;1.59;100.00;102770.44;5018320;28;20146;-83
2022/01/11 09:43:59;;;;;;;0.20;0.20;;;;;;;1.70;100.00;102800.47;5019784;28;20068;-84
2022/01/11 09:46:34;;;;;;;0.20;0.20;;;;;;;1.68;100.00;102796.28;5021312;28;20053;-85
2022/01/11 09:49:04;;;;;;;0.20;0.20;;;;;;;1.78;100.00;102807.69;5020346;28;20718;-83
2022/01/11 09:51:36;;;;;;;0.20;0.20;;;;;;;1.80;100.00;102794.09;5020111;28;20053;-83
2022/01/11 09:54:05;;;;;;;0.20;0.20;;;;;;;1.83;100.00;102791.88;5022857;28;20053;-84
2022/01/11 09:56:42;;;;;;;;;;;;;;;1.88;100.00;102777.97;5021825;28;20484;-84
2022/01/11 09:59:18;;;;;;;0.20;0.20;;;;;;;1.94;100.00;102774.59;5018859;28;19929;-83
2022/01/11 10:02:14;;;;;;;0.20;0.20;;;;;;;1.95;100.00;102784.34;5018577;28;20312;-84
2022/01/11 10:04:59;;;;;;;0.20;0.20;;;;;;;1.96;100.00;102780.66;5019008;28;20053;-85
2022/01/11 10:07:34;;;;;;;0.20;0.20;;;;;;;1.89;100.00;102776.13;5026858;28;20379;-88
2022/01/11 10:10:12;;;;;;;0.22;0.22;;;;;;;2.01;100.00;102785.50;5020688;28;20417;-84
2022/01/11 10:12:49;;;;;;;0.20;0.20;;;;;;;2.03;100.00;102788.84;5024077;28;20057;-85
2022/01/11 10:15:28;;;;;;;0.20;0.20;;;;;;;2.08;100.00;102785.66;5020422;28;20053;-85
2022/01/11 10:18:02;;;;;;;0.20;0.20;;;;;;;2.13;100.00;102777.94;5024572;28;20054;-86
2022/01/11 10:20:37;;;;;;;0.20;0.20;;;;;;;2.15;100.00;102774.03;5016425;28;20058;-85
2022/01/11 10:23:13;;;;;;;0.20;0.20;;;;;;;2.33;100.00;102781.06;5016823;28;20056;-86
2022/01/11 10:25:49;;;;;;;0.10;0.10;;;;;;;2.31;100.00;102775.84;5017456;28;20058;-83
2022/01/11 10:28:34;;;;;;;0.20;0.20;;;;;;;2.20;100.00;102769.00;5015030;28;20050;-85
2022/01/11 10:31:09;;;;;;;0.10;0.10;;;;;;;2.29;100.00;102779.72;5018219;28;20049;-84
2022/01/11 10:34:00;;;;;;;0.20;0.20;;;;;;;2.30;100.00;102792.16;5020382;28;20088;-84
2022/01/11 10:36:44;;;;;;;0.20;0.20;;;;;;;2.24;100.00;102788.31;5016874;28;20410;-84
2022/01/11 10:39:34;;;;;;;0.20;0.20;;;;;;;2.12;100.00;102785.13;5016759;28;20053;-85
2022/01/11 10:42:23;;;;;;;0.20;0.20;;;;;;;2.08;100.00;102786.50;5017112;28;20052;-88
2022/01/11 10:45:04;;;;;;;0.20;0.20;;;;;;;2.11;100.00;102782.63;5020600;28;21403;-87
2022/01/11 10:47:37;;;;;;;0.20;0.20;;;;;;;1.94;100.00;102790.72;5018078;28;20048;-87
2022/01/11 10:50:15;;;;;;;0.20;0.20;;;;;;;1.98;100.00;102777.78;5017644;28;20564;-85
2022/01/11 10:52:49;;;;;;;0.25;0.20;;;;;;;1.89;100.00;102776.13;5019694;28;20056;-88
2022/01/11 10:55:28;;;;;;;0.20;0.20;;;;;;;1.92;100.00;102782.00;5020679;28;20057;-87
2022/01/11 10:58:05;;;;;;;0.20;0.20;;;;;;;1.84;100.00;102769.41;5019015;28;20056;-88
2022/01/11 11:00:35;;;;;;;0.20;0.20;;;;;;;1.88;100.00;102775.28;5020458;28;20053;-89
2022/01/11 11:03:07;;;;;;;0.13;0.13;;;;;;;1.89;100.00;102781.50;5026584;28;20061;-86
2022/01/11 11:05:39;;;;;;;0.20;0.20;;;;;;;1.82;100.00;102782.19;5019389;28;21016;-88
2022/01/11 11:08:17;;;;;;;0.20;0.20;;;;;;;1.80;100.00;102788.72;5017854;28;20053;-88
2022/01/11 11:11:00;;;;;;;0.20;0.20;;;;;;;1.73;100.00;102752.81;5017047;28;20068;-86
2022/01/11 11:13:37;;;;;;;0.20;0.20;;;;;;;1.82;100.00;102789.38;5019724;28;20052;-87
2022/01/11 11:16:14;;;;;;;0.20;0.20;;;;;;;1.68;100.00;102785.53;5018674;28;20053;-87
2022/01/11 11:18:53;;;;;;;0.20;0.20;;;;;;;1.77;100.00;102791.72;5019860;28;20061;-89
2022/01/11 11:21:38;;;;;;;0.20;0.20;;;;;;;1.79;100.00;102787.03;5018273;28;20438;-87
2022/01/11 11:24:10;;;;;;;0.20;0.20;;;;;;;1.80;100.00;102781.50;5022023;28;20045;-87
2022/01/11 11:26:40;;;;;;;0.20;0.20;;;;;;;1.87;100.00;102776.28;5019403;28;20049;-88
2022/01/11 11:29:10;;;;;;;0.20;0.20;;;;;;;1.92;100.00;102784.69;5018943;28;20277;-86
2022/01/11 11:31:39;;;;;;;0.20;0.20;;;;;;;1.98;100.00;102778.63;5017926;28;20053;-86
2022/01/11 11:34:12;;;;;;;0.20;0.20;;;;;;;1.96;100.00;102775.28;5019735;28;20774;-89
2022/01/11 11:36:47;;;;;;;0.20;0.20;;;;;;;1.94;100.00;102776.47;5016713;28;20104;-86
2022/01/11 11:39:19;;;;;;;0.20;0.20;;;;;;;1.94;100.00;102771.91;5017648;28;20075;-88
2022/01/11 11:41:55;;;;;;;0.20;0.20;;;;;;;1.93;100.00;102772.09;5015603;28;20068;-83
2022/01/11 11:44:25;;;;;;;0.20;0.20;;;;;;;1.96;100.00;102774.41;5018598;28;20053;-87
2022/01/11 11:46:55;;;;;;;0.20;0.20;;;;;;;1.99;100.00;102768.72;5019666;28;20536;-87
2022/01/11 11:49:44;;;;;;;0.30;0.30;;;;;;;1.94;100.00;102768.41;5018364;28;20064;-88
2022/01/11 11:52:21;;;;;;;0.20;0.20;;;;;;;1.89;100.00;102752.78;5018729;28;20049;-85
2022/01/11 11:54:59;;;;;;;0.13;0.13;;;;;;;1.95;100.00;102760.16;5015684;28;20053;-85